sensor_id;sensor_type;location;lat;lon;timestamp;P1;durP1;ratioP1;P2;durP2;ratioP2
32297;SDS011;18782;48.984;8.548;2023-12-28T00:00:05;11.10;;;6.45;;
32297;SDS011;18782;48.984;8.548;2023-12-28T00:02:34;14.48;;;6.97;;
32297;SDS011;18782;48.984;8.548;2023-12-28T00:05:02;13.68;;;6.65;;
32297;SDS011;18782;48.984;8.548;2023-12-28T00:07:31;11.60;;;5.72;;
32297;SDS011;18782;48.984;8.548;2023-12-28T00:09:59;12.32;;;6.72;;
32297;SDS011;18782;48.984;8.548;2023-12-28T00:12:27;10.25;;;6.25;;
32297;SDS011;18782;48.984;8.548;2023-12-28T00:14:54;14.65;;;8.57;;
32297;SDS011;18782;48.984;8.548;2023-12-28T00:17:22;12.50;;;7.07;;
32297;SDS011;18782;48.984;8.548;2023-12-28T00:19:49;13.88;;;9.18;;
32297;SDS011;18782;48.984;8.548;2023-12-28T00:22:17;12.88;;;8.52;;
32297;SDS011;18782;48.984;8.548;2023-12-28T00:24:46;15.55;;;8.75;;
32297;SDS011;18782;48.984;8.548;2023-12-28T00:27:14;20.48;;;9.68;;
32297;SDS011;18782;48.984;8.548;2023-12-28T00:29:42;12.90;;;7.55;;
32297;SDS011;18782;48.984;8.548;2023-12-28T00:32:10;13.93;;;8.50;;
32297;SDS011;18782;48.984;8.548;2023-12-28T00:34:38;12.32;;;6.07;;
32297;SDS011;18782;48.984;8.548;2023-12-28T00:37:06;11.18;;;6.25;;
32297;SDS011;18782;48.984;8.548;2023-12-28T00:39:34;9.30;;;5.25;;
32297;SDS011;18782;48.984;8.548;2023-12-28T00:42:03;11.50;;;6.32;;
32297;SDS011;18782;48.984;8.548;2023-12-28T00:44:32;10.48;;;5.88;;
32297;SDS011;18782;48.984;8.548;2023-12-28T00:46:59;8.98;;;5.40;;
32297;SDS011;18782;48.984;8.548;2023-12-28T00:49:27;9.15;;;5.43;;
32297;SDS011;18782;48.984;8.548;2023-12-28T00:51:55;11.30;;;5.45;;
32297;SDS011;18782;48.984;8.548;2023-12-28T00:54:22;9.02;;;5.47;;
32297;SDS011;18782;48.984;8.548;2023-12-28T00:56:50;11.10;;;6.22;;
32297;SDS011;18782;48.984;8.548;2023-12-28T00:59:19;11.55;;;5.43;;
32297;SDS011;18782;48.984;8.548;2023-12-28T01:01:47;11.00;;;5.70;;
32297;SDS011;18782;48.984;8.548;2023-12-28T01:04:14;13.05;;;5.85;;
32297;SDS011;18782;48.984;8.548;2023-12-28T01:06:43;9.45;;;6.22;;
32297;SDS011;18782;48.984;8.548;2023-12-28T01:09:10;11.38;;;5.70;;
32297;SDS011;18782;48.984;8.548;2023-12-28T01:11:38;9.82;;;4.88;;
32297;SDS011;18782;48.984;8.548;2023-12-28T01:14:06;9.88;;;5.55;;
32297;SDS011;18782;48.984;8.548;2023-12-28T01:16:35;10.43;;;5.03;;
32297;SDS011;18782;48.984;8.548;2023-12-28T01:19:05;7.93;;;4.75;;
32297;SDS011;18782;48.984;8.548;2023-12-28T01:21:33;8.10;;;4.85;;
32297;SDS011;18782;48.984;8.548;2023-12-28T01:24:01;14.45;;;6.47;;
32297;SDS011;18782;48.984;8.548;2023-12-28T01:26:27;10.77;;;5.18;;
32297;SDS011;18782;48.984;8.548;2023-12-28T01:28:55;9.43;;;5.72;;
32297;SDS011;18782;48.984;8.548;2023-12-28T01:31:23;11.18;;;5.45;;
32297;SDS011;18782;48.984;8.548;2023-12-28T01:33:53;9.20;;;5.22;;
32297;SDS011;18782;48.984;8.548;2023-12-28T01:36:21;11.57;;;5.35;;
32297;SDS011;18782;48.984;8.548;2023-12-28T01:38:49;7.53;;;4.57;;
32297;SDS011;18782;48.984;8.548;2023-12-28T01:41:18;7.95;;;4.43;;
32297;SDS011;18782;48.984;8.548;2023-12-28T01:43:45;9.68;;;4.95;;
32297;SDS011;18782;48.984;8.548;2023-12-28T01:46:13;9.32;;;4.93;;
32297;SDS011;18782;48.984;8.548;2023-12-28T01:48:44;8.80;;;5.18;;
32297;SDS011;18782;48.984;8.548;2023-12-28T01:51:17;7.85;;;4.65;;
32297;SDS011;18782;48.984;8.548;2023-12-28T01:53:47;9.40;;;5.47;;
32297;SDS011;18782;48.984;8.548;2023-12-28T01:56:17;8.45;;;4.82;;
32297;SDS011;18782;48.984;8.548;2023-12-28T01:58:46;8.40;;;4.65;;
32297;SDS011;18782;48.984;8.548;2023-12-28T02:01:16;10.18;;;4.43;;
32297;SDS011;18782;48.984;8.548;2023-12-28T02:03:44;7.95;;;4.75;;
32297;SDS011;18782;48.984;8.548;2023-12-28T02:06:13;7.30;;;4.40;;
32297;SDS011;18782;48.984;8.548;2023-12-28T02:08:44;9.15;;;4.60;;
32297;SDS011;18782;48.984;8.548;2023-12-28T02:11:12;8.13;;;4.70;;
32297;SDS011;18782;48.984;8.548;2023-12-28T02:13:39;7.85;;;4.47;;
32297;SDS011;18782;48.984;8.548;2023-12-28T02:16:10;8.93;;;4.70;;
32297;SDS011;18782;48.984;8.548;2023-12-28T02:18:42;7.65;;;4.20;;
32297;SDS011;18782;48.984;8.548;2023-12-28T02:21:11;8.88;;;4.15;;
32297;SDS011;18782;48.984;8.548;2023-12-28T02:23:46;6.90;;;3.80;;
32297;SDS011;18782;48.984;8.548;2023-12-28T02:26:16;6.18;;;3.97;;
32297;SDS011;18782;48.984;8.548;2023-12-28T02:28:45;8.82;;;4.78;;
32297;SDS011;18782;48.984;8.548;2023-12-28T02:31:14;8.50;;;4.20;;
32297;SDS011;18782;48.984;8.548;2023-12-28T02:33:48;7.50;;;4.15;;
32297;SDS011;18782;48.984;8.548;2023-12-28T02:36:22;6.38;;;3.95;;
32297;SDS011;18782;48.984;8.548;2023-12-28T02:38:51;8.18;;;3.75;;
32297;SDS011;18782;48.984;8.548;2023-12-28T02:41:22;5.28;;;3.45;;
32297;SDS011;18782;48.984;8.548;2023-12-28T02:43:53;6.45;;;3.50;;
32297;SDS011;18782;48.984;8.548;2023-12-28T02:46:21;7.47;;;3.80;;
32297;SDS011;18782;48.984;8.548;2023-12-28T02:48:48;8.55;;;3.72;;
32297;SDS011;18782;48.984;8.548;2023-12-28T02:51:16;7.63;;;3.63;;
32297;SDS011;18782;48.984;8.548;2023-12-28T02:53:44;5.75;;;3.40;;
32297;SDS011;18782;48.984;8.548;2023-12-28T02:56:12;5.95;;;3.60;;
32297;SDS011;18782;48.984;8.548;2023-12-28T02:58:42;8.63;;;3.67;;
32297;SDS011;18782;48.984;8.548;2023-12-28T03:01:09;6.68;;;3.60;;
32297;SDS011;18782;48.984;8.548;2023-12-28T03:03:37;9.57;;;3.47;;
32297;SDS011;18782;48.984;8.548;2023-12-28T03:06:05;6.45;;;3.55;;
32297;SDS011;18782;48.984;8.548;2023-12-28T03:08:33;6.53;;;3.20;;
32297;SDS011;18782;48.984;8.548;2023-12-28T03:11:00;6.28;;;3.22;;
32297;SDS011;18782;48.984;8.548;2023-12-28T03:13:28;6.75;;;2.97;;
32297;SDS011;18782;48.984;8.548;2023-12-28T03:15:57;5.90;;;2.80;;
32297;SDS011;18782;48.984;8.548;2023-12-28T03:18:25;4.88;;;2.88;;
32297;SDS011;18782;48.984;8.548;2023-12-28T03:20:53;5.68;;;3.00;;
32297;SDS011;18782;48.984;8.548;2023-12-28T03:23:20;5.45;;;3.30;;
32297;SDS011;18782;48.984;8.548;2023-12-28T03:25:48;5.15;;;3.13;;
32297;SDS011;18782;48.984;8.548;2023-12-28T03:28:16;7.70;;;3.15;;
32297;SDS011;18782;48.984;8.548;2023-12-28T03:30:44;6.13;;;2.75;;
32297;SDS011;18782;48.984;8.548;2023-12-28T03:33:13;5.40;;;2.75;;
32297;SDS011;18782;48.984;8.548;2023-12-28T03:35:41;3.75;;;2.13;;
32297;SDS011;18782;48.984;8.548;2023-12-28T03:38:08;6.00;;;2.75;;
32297;SDS011;18782;48.984;8.548;2023-12-28T03:40:36;6.00;;;2.42;;
32297;SDS011;18782;48.984;8.548;2023-12-28T03:43:04;5.03;;;2.60;;
32297;SDS011;18782;48.984;8.548;2023-12-28T03:45:32;6.35;;;2.88;;
32297;SDS011;18782;48.984;8.548;2023-12-28T03:48:00;7.70;;;3.33;;
32297;SDS011;18782;48.984;8.548;2023-12-28T03:50:29;4.80;;;2.83;;
32297;SDS011;18782;48.984;8.548;2023-12-28T03:52:57;4.63;;;2.55;;
32297;SDS011;18782;48.984;8.548;2023-12-28T03:55:25;6.43;;;2.60;;
32297;SDS011;18782;48.984;8.548;2023-12-28T03:57:53;6.03;;;2.65;;
32297;SDS011;18782;48.984;8.548;2023-12-28T04:00:21;4.35;;;2.30;;
32297;SDS011;18782;48.984;8.548;2023-12-28T04:02:50;3.25;;;2.30;;
32297;SDS011;18782;48.984;8.548;2023-12-28T04:05:18;5.00;;;2.67;;
32297;SDS011;18782;48.984;8.548;2023-12-28T04:07:47;5.65;;;2.33;;
32297;SDS011;18782;48.984;8.548;2023-12-28T04:10:18;5.57;;;2.67;;
32297;SDS011;18782;48.984;8.548;2023-12-28T04:12:55;4.65;;;2.20;;
32297;SDS011;18782;48.984;8.548;2023-12-28T04:15:24;4.15;;;2.45;;
32297;SDS011;18782;48.984;8.548;2023-12-28T04:17:52;4.22;;;2.60;;
32297;SDS011;18782;48.984;8.548;2023-12-28T04:20:19;5.03;;;2.53;;
32297;SDS011;18782;48.984;8.548;2023-12-28T04:22:48;5.20;;;2.42;;
32297;SDS011;18782;48.984;8.548;2023-12-28T04:25:16;4.55;;;2.60;;
32297;SDS011;18782;48.984;8.548;2023-12-28T04:27:44;4.07;;;2.10;;
32297;SDS011;18782;48.984;8.548;2023-12-28T04:30:12;6.43;;;2.30;;
32297;SDS011;18782;48.984;8.548;2023-12-28T04:32:41;3.70;;;2.15;;
32297;SDS011;18782;48.984;8.548;2023-12-28T04:35:09;4.00;;;2.60;;
32297;SDS011;18782;48.984;8.548;2023-12-28T04:37:37;3.80;;;2.10;;
32297;SDS011;18782;48.984;8.548;2023-12-28T04:40:06;3.90;;;2.55;;
32297;SDS011;18782;48.984;8.548;2023-12-28T04:42:35;4.88;;;2.45;;
32297;SDS011;18782;48.984;8.548;2023-12-28T04:45:03;5.07;;;2.75;;
32297;SDS011;18782;48.984;8.548;2023-12-28T04:47:31;3.17;;;1.73;;
32297;SDS011;18782;48.984;8.548;2023-12-28T04:49:59;3.67;;;2.03;;
32297;SDS011;18782;48.984;8.548;2023-12-28T04:52:27;3.80;;;1.88;;
32297;SDS011;18782;48.984;8.548;2023-12-28T04:54:54;4.85;;;2.03;;
32297;SDS011;18782;48.984;8.548;2023-12-28T04:57:24;3.80;;;1.90;;
32297;SDS011;18782;48.984;8.548;2023-12-28T04:59:54;3.13;;;1.80;;
32297;SDS011;18782;48.984;8.548;2023-12-28T05:02:22;2.72;;;1.50;;
32297;SDS011;18782;48.984;8.548;2023-12-28T05:04:49;4.15;;;1.80;;
32297;SDS011;18782;48.984;8.548;2023-12-28T05:07:19;2.08;;;1.23;;
32297;SDS011;18782;48.984;8.548;2023-12-28T05:09:46;3.45;;;1.60;;
32297;SDS011;18782;48.984;8.548;2023-12-28T05:12:14;2.60;;;1.52;;
32297;SDS011;18782;48.984;8.548;2023-12-28T05:14:43;3.47;;;2.05;;
32297;SDS011;18782;48.984;8.548;2023-12-28T05:17:11;4.63;;;2.25;;
32297;SDS011;18782;48.984;8.548;2023-12-28T05:19:38;6.28;;;2.85;;
32297;SDS011;18782;48.984;8.548;2023-12-28T05:22:06;7.75;;;3.15;;
32297;SDS011;18782;48.984;8.548;2023-12-28T05:24:37;4.55;;;2.50;;
32297;SDS011;18782;48.984;8.548;2023-12-28T05:27:05;3.92;;;2.40;;
32297;SDS011;18782;48.984;8.548;2023-12-28T05:29:32;4.20;;;2.22;;
32297;SDS011;18782;48.984;8.548;2023-12-28T05:32:01;4.10;;;1.65;;
32297;SDS011;18782;48.984;8.548;2023-12-28T05:34:29;3.30;;;2.08;;
32297;SDS011;18782;48.984;8.548;2023-12-28T05:36:57;3.83;;;2.13;;
32297;SDS011;18782;48.984;8.548;2023-12-28T05:39:25;3.17;;;1.90;;
32297;SDS011;18782;48.984;8.548;2023-12-28T05:41:52;5.75;;;2.40;;
32297;SDS011;18782;48.984;8.548;2023-12-28T05:44:20;4.53;;;1.73;;
32297;SDS011;18782;48.984;8.548;2023-12-28T05:46:48;3.33;;;1.67;;
32297;SDS011;18782;48.984;8.548;2023-12-28T05:49:17;3.50;;;2.30;;
32297;SDS011;18782;48.984;8.548;2023-12-28T05:51:44;5.60;;;2.40;;
32297;SDS011;18782;48.984;8.548;2023-12-28T05:54:12;3.85;;;2.55;;
32297;SDS011;18782;48.984;8.548;2023-12-28T05:56:40;5.13;;;2.28;;
32297;SDS011;18782;48.984;8.548;2023-12-28T05:59:08;3.50;;;2.10;;
32297;SDS011;18782;48.984;8.548;2023-12-28T06:01:41;3.53;;;1.95;;
32297;SDS011;18782;48.984;8.548;2023-12-28T06:04:09;4.38;;;2.20;;
32297;SDS011;18782;48.984;8.548;2023-12-28T06:06:38;3.47;;;2.15;;
32297;SDS011;18782;48.984;8.548;2023-12-28T06:09:06;3.25;;;1.80;;
32297;SDS011;18782;48.984;8.548;2023-12-28T06:11:34;2.90;;;1.55;;
32297;SDS011;18782;48.984;8.548;2023-12-28T06:14:02;2.25;;;1.58;;
32297;SDS011;18782;48.984;8.548;2023-12-28T06:16:30;2.20;;;1.60;;
32297;SDS011;18782;48.984;8.548;2023-12-28T06:18:59;2.63;;;1.48;;
32297;SDS011;18782;48.984;8.548;2023-12-28T06:21:27;3.28;;;1.55;;
32297;SDS011;18782;48.984;8.548;2023-12-28T06:23:59;2.53;;;1.50;;
32297;SDS011;18782;48.984;8.548;2023-12-28T06:26:26;2.28;;;1.60;;
32297;SDS011;18782;48.984;8.548;2023-12-28T06:28:54;2.92;;;1.27;;
32297;SDS011;18782;48.984;8.548;2023-12-28T06:31:22;2.10;;;1.13;;
32297;SDS011;18782;48.984;8.548;2023-12-28T06:33:50;3.08;;;1.38;;
32297;SDS011;18782;48.984;8.548;2023-12-28T06:36:17;2.92;;;1.50;;
32297;SDS011;18782;48.984;8.548;2023-12-28T06:38:45;2.15;;;1.60;;
32297;SDS011;18782;48.984;8.548;2023-12-28T06:41:15;3.25;;;1.42;;
32297;SDS011;18782;48.984;8.548;2023-12-28T06:43:43;2.25;;;1.40;;
32297;SDS011;18782;48.984;8.548;2023-12-28T06:46:10;2.92;;;1.80;;
32297;SDS011;18782;48.984;8.548;2023-12-28T06:48:38;3.05;;;1.90;;
32297;SDS011;18782;48.984;8.548;2023-12-28T06:51:06;3.80;;;2.42;;
32297;SDS011;18782;48.984;8.548;2023-12-28T06:53:34;3.92;;;2.42;;
32297;SDS011;18782;48.984;8.548;2023-12-28T06:56:02;4.63;;;3.10;;
32297;SDS011;18782;48.984;8.548;2023-12-28T06:58:31;8.15;;;4.07;;
32297;SDS011;18782;48.984;8.548;2023-12-28T07:00:59;5.68;;;3.00;;
32297;SDS011;18782;48.984;8.548;2023-12-28T07:03:27;4.95;;;2.90;;
32297;SDS011;18782;48.984;8.548;2023-12-28T07:05:56;4.90;;;2.20;;
32297;SDS011;18782;48.984;8.548;2023-12-28T07:08:24;3.13;;;1.98;;
32297;SDS011;18782;48.984;8.548;2023-12-28T07:10:52;4.07;;;2.28;;
32297;SDS011;18782;48.984;8.548;2023-12-28T07:13:19;4.95;;;2.22;;
32297;SDS011;18782;48.984;8.548;2023-12-28T07:15:48;2.80;;;1.50;;
32297;SDS011;18782;48.984;8.548;2023-12-28T07:18:16;3.60;;;1.60;;
32297;SDS011;18782;48.984;8.548;2023-12-28T07:20:44;2.55;;;1.40;;
32297;SDS011;18782;48.984;8.548;2023-12-28T07:23:12;3.63;;;1.63;;
32297;SDS011;18782;48.984;8.548;2023-12-28T07:25:39;2.28;;;1.35;;
32297;SDS011;18782;48.984;8.548;2023-12-28T07:28:07;3.97;;;1.58;;
32297;SDS011;18782;48.984;8.548;2023-12-28T07:30:35;4.80;;;2.28;;
32297;SDS011;18782;48.984;8.548;2023-12-28T07:33:05;3.45;;;2.17;;
32297;SDS011;18782;48.984;8.548;2023-12-28T07:35:33;4.25;;;1.70;;
32297;SDS011;18782;48.984;8.548;2023-12-28T07:38:00;1.90;;;1.20;;
32297;SDS011;18782;48.984;8.548;2023-12-28T07:40:28;3.03;;;1.95;;
32297;SDS011;18782;48.984;8.548;2023-12-28T07:42:56;3.83;;;2.13;;
32297;SDS011;18782;48.984;8.548;2023-12-28T07:45:24;11.85;;;7.72;;
32297;SDS011;18782;48.984;8.548;2023-12-28T07:47:52;14.02;;;8.25;;
32297;SDS011;18782;48.984;8.548;2023-12-28T07:50:22;6.50;;;3.92;;
32297;SDS011;18782;48.984;8.548;2023-12-28T07:52:50;13.88;;;6.68;;
32297;SDS011;18782;48.984;8.548;2023-12-28T07:55:17;27.52;;;11.75;;
32297;SDS011;18782;48.984;8.548;2023-12-28T07:57:45;9.27;;;5.10;;
32297;SDS011;18782;48.984;8.548;2023-12-28T08:00:13;4.65;;;2.70;;
32297;SDS011;18782;48.984;8.548;2023-12-28T08:02:41;4.55;;;2.13;;
32297;SDS011;18782;48.984;8.548;2023-12-28T08:05:09;8.27;;;4.25;;
32297;SDS011;18782;48.984;8.548;2023-12-28T08:07:38;7.25;;;3.80;;
32297;SDS011;18782;48.984;8.548;2023-12-28T08:10:06;26.55;;;8.93;;
32297;SDS011;18782;48.984;8.548;2023-12-28T08:12:34;12.52;;;4.25;;
32297;SDS011;18782;48.984;8.548;2023-12-28T08:15:02;8.95;;;3.30;;
32297;SDS011;18782;48.984;8.548;2023-12-28T08:17:31;16.17;;;4.93;;
32297;SDS011;18782;48.984;8.548;2023-12-28T08:19:59;5.57;;;2.25;;
32297;SDS011;18782;48.984;8.548;2023-12-28T08:22:27;4.18;;;1.95;;
32297;SDS011;18782;48.984;8.548;2023-12-28T08:24:56;5.28;;;2.45;;
32297;SDS011;18782;48.984;8.548;2023-12-28T08:27:24;4.07;;;1.50;;
32297;SDS011;18782;48.984;8.548;2023-12-28T08:29:52;2.95;;;1.88;;
32297;SDS011;18782;48.984;8.548;2023-12-28T08:32:20;2.13;;;1.33;;
32297;SDS011;18782;48.984;8.548;2023-12-28T08:34:47;5.03;;;2.40;;
32297;SDS011;18782;48.984;8.548;2023-12-28T08:37:15;4.05;;;2.30;;
32297;SDS011;18782;48.984;8.548;2023-12-28T08:39:43;3.55;;;1.88;;
32297;SDS011;18782;48.984;8.548;2023-12-28T08:42:12;2.15;;;1.30;;
32297;SDS011;18782;48.984;8.548;2023-12-28T08:44:40;2.47;;;1.63;;
32297;SDS011;18782;48.984;8.548;2023-12-28T08:47:07;3.10;;;1.90;;
32297;SDS011;18782;48.984;8.548;2023-12-28T08:49:35;2.75;;;1.65;;
32297;SDS011;18782;48.984;8.548;2023-12-28T08:52:03;2.63;;;1.40;;
32297;SDS011;18782;48.984;8.548;2023-12-28T08:54:31;2.92;;;1.83;;
32297;SDS011;18782;48.984;8.548;2023-12-28T08:56:59;3.35;;;1.92;;
32297;SDS011;18782;48.984;8.548;2023-12-28T08:59:28;3.28;;;1.95;;
32297;SDS011;18782;48.984;8.548;2023-12-28T09:01:55;3.60;;;1.90;;
32297;SDS011;18782;48.984;8.548;2023-12-28T09:04:23;4.30;;;1.95;;
32297;SDS011;18782;48.984;8.548;2023-12-28T09:06:51;3.60;;;1.80;;
32297;SDS011;18782;48.984;8.548;2023-12-28T09:09:19;3.20;;;1.55;;
32297;SDS011;18782;48.984;8.548;2023-12-28T09:11:47;3.13;;;2.00;;
32297;SDS011;18782;48.984;8.548;2023-12-28T09:14:14;3.25;;;2.00;;
32297;SDS011;18782;48.984;8.548;2023-12-28T09:16:44;5.47;;;2.53;;
32297;SDS011;18782;48.984;8.548;2023-12-28T09:19:13;4.50;;;2.90;;
32297;SDS011;18782;48.984;8.548;2023-12-28T09:21:41;5.97;;;3.40;;
32297;SDS011;18782;48.984;8.548;2023-12-28T09:24:08;6.57;;;3.97;;
32297;SDS011;18782;48.984;8.548;2023-12-28T09:26:36;5.38;;;3.70;;
32297;SDS011;18782;48.984;8.548;2023-12-28T09:29:04;4.57;;;3.00;;
32297;SDS011;18782;48.984;8.548;2023-12-28T09:31:31;3.50;;;2.17;;
32297;SDS011;18782;48.984;8.548;2023-12-28T09:34:01;3.42;;;1.60;;
32297;SDS011;18782;48.984;8.548;2023-12-28T09:36:28;4.45;;;1.90;;
32297;SDS011;18782;48.984;8.548;2023-12-28T09:38:56;2.90;;;2.20;;
32297;SDS011;18782;48.984;8.548;2023-12-28T09:41:25;5.53;;;2.63;;
32297;SDS011;18782;48.984;8.548;2023-12-28T09:43:54;4.88;;;2.10;;
32297;SDS011;18782;48.984;8.548;2023-12-28T09:46:40;3.88;;;2.10;;
32297;SDS011;18782;48.984;8.548;2023-12-28T09:49:11;3.38;;;1.95;;
32297;SDS011;18782;48.984;8.548;2023-12-28T09:51:39;4.82;;;1.65;;
32297;SDS011;18782;48.984;8.548;2023-12-28T09:54:07;5.15;;;1.20;;
32297;SDS011;18782;48.984;8.548;2023-12-28T09:56:35;2.92;;;1.40;;
32297;SDS011;18782;48.984;8.548;2023-12-28T09:59:03;3.17;;;1.45;;
32297;SDS011;18782;48.984;8.548;2023-12-28T10:01:32;2.53;;;1.30;;
32297;SDS011;18782;48.984;8.548;2023-12-28T10:04:01;4.47;;;1.60;;
32297;SDS011;18782;48.984;8.548;2023-12-28T10:06:31;2.17;;;1.40;;
32297;SDS011;18782;48.984;8.548;2023-12-28T10:08:59;2.78;;;1.63;;
32297;SDS011;18782;48.984;8.548;2023-12-28T10:11:27;4.57;;;1.58;;
32297;SDS011;18782;48.984;8.548;2023-12-28T10:13:54;1.98;;;1.20;;
32297;SDS011;18782;48.984;8.548;2023-12-28T10:16:23;2.72;;;1.20;;
32297;SDS011;18782;48.984;8.548;2023-12-28T10:18:51;3.22;;;1.15;;
32297;SDS011;18782;48.984;8.548;2023-12-28T10:21:19;4.55;;;1.60;;
32297;SDS011;18782;48.984;8.548;2023-12-28T10:23:48;2.85;;;1.58;;
32297;SDS011;18782;48.984;8.548;2023-12-28T10:26:17;2.25;;;1.25;;
32297;SDS011;18782;48.984;8.548;2023-12-28T10:28:45;2.75;;;1.23;;
32297;SDS011;18782;48.984;8.548;2023-12-28T10:31:12;2.45;;;1.50;;
32297;SDS011;18782;48.984;8.548;2023-12-28T10:33:42;3.65;;;1.80;;
32297;SDS011;18782;48.984;8.548;2023-12-28T10:36:12;2.97;;;1.50;;
32297;SDS011;18782;48.984;8.548;2023-12-28T10:38:42;3.83;;;1.58;;
32297;SDS011;18782;48.984;8.548;2023-12-28T10:41:13;2.88;;;1.50;;
32297;SDS011;18782;48.984;8.548;2023-12-28T10:43:44;2.67;;;1.55;;
32297;SDS011;18782;48.984;8.548;2023-12-28T10:46:16;2.30;;;1.35;;
32297;SDS011;18782;48.984;8.548;2023-12-28T10:48:52;2.53;;;1.23;;
32297;SDS011;18782;48.984;8.548;2023-12-28T10:51:23;3.88;;;1.50;;
32297;SDS011;18782;48.984;8.548;2023-12-28T10:53:56;2.65;;;1.33;;
32297;SDS011;18782;48.984;8.548;2023-12-28T10:56:35;2.05;;;1.48;;
32297;SDS011;18782;48.984;8.548;2023-12-28T10:59:09;2.10;;;1.30;;
32297;SDS011;18782;48.984;8.548;2023-12-28T11:01:46;2.13;;;1.30;;
32297;SDS011;18782;48.984;8.548;2023-12-28T11:04:16;4.00;;;1.40;;
32297;SDS011;18782;48.984;8.548;2023-12-28T11:06:49;2.15;;;1.30;;
32297;SDS011;18782;48.984;8.548;2023-12-28T11:09:18;2.97;;;1.10;;
32297;SDS011;18782;48.984;8.548;2023-12-28T11:11:49;1.90;;;1.10;;
32297;SDS011;18782;48.984;8.548;2023-12-28T11:14:18;2.08;;;1.00;;
32297;SDS011;18782;48.984;8.548;2023-12-28T11:16:47;3.30;;;1.55;;
32297;SDS011;18782;48.984;8.548;2023-12-28T11:19:16;1.67;;;1.00;;
32297;SDS011;18782;48.984;8.548;2023-12-28T11:21:45;1.35;;;0.93;;
32297;SDS011;18782;48.984;8.548;2023-12-28T11:24:12;1.23;;;0.90;;
32297;SDS011;18782;48.984;8.548;2023-12-28T11:26:40;1.13;;;0.80;;
32297;SDS011;18782;48.984;8.548;2023-12-28T11:29:09;4.05;;;1.25;;
32297;SDS011;18782;48.984;8.548;2023-12-28T11:31:37;5.43;;;2.00;;
32297;SDS011;18782;48.984;8.548;2023-12-28T11:34:05;4.30;;;2.20;;
32297;SDS011;18782;48.984;8.548;2023-12-28T11:36:38;2.85;;;1.20;;
32297;SDS011;18782;48.984;8.548;2023-12-28T11:39:11;2.20;;;0.93;;
32297;SDS011;18782;48.984;8.548;2023-12-28T11:41:40;2.65;;;0.93;;
32297;SDS011;18782;48.984;8.548;2023-12-28T11:44:11;2.00;;;0.95;;
32297;SDS011;18782;48.984;8.548;2023-12-28T11:46:38;3.05;;;1.15;;
32297;SDS011;18782;48.984;8.548;2023-12-28T11:49:09;2.58;;;1.20;;
32297;SDS011;18782;48.984;8.548;2023-12-28T11:51:37;2.90;;;1.10;;
32297;SDS011;18782;48.984;8.548;2023-12-28T11:54:07;1.40;;;0.90;;
32297;SDS011;18782;48.984;8.548;2023-12-28T11:56:34;2.05;;;1.15;;
32297;SDS011;18782;48.984;8.548;2023-12-28T11:59:03;5.05;;;2.67;;
32297;SDS011;18782;48.984;8.548;2023-12-28T12:01:32;5.15;;;3.40;;
32297;SDS011;18782;48.984;8.548;2023-12-28T12:04:00;3.50;;;1.60;;
32297;SDS011;18782;48.984;8.548;2023-12-28T12:06:28;2.63;;;1.27;;
32297;SDS011;18782;48.984;8.548;2023-12-28T12:08:56;5.03;;;2.25;;
32297;SDS011;18782;48.984;8.548;2023-12-28T12:11:25;3.13;;;1.83;;
32297;SDS011;18782;48.984;8.548;2023-12-28T12:13:54;2.88;;;1.80;;
32297;SDS011;18782;48.984;8.548;2023-12-28T12:16:22;8.90;;;3.10;;
32297;SDS011;18782;48.984;8.548;2023-12-28T12:18:51;6.03;;;2.70;;
32297;SDS011;18782;48.984;8.548;2023-12-28T12:21:22;2.50;;;1.45;;
32297;SDS011;18782;48.984;8.548;2023-12-28T12:23:51;4.40;;;2.55;;
32297;SDS011;18782;48.984;8.548;2023-12-28T12:26:18;3.53;;;1.50;;
32297;SDS011;18782;48.984;8.548;2023-12-28T12:28:46;3.08;;;1.40;;
32297;SDS011;18782;48.984;8.548;2023-12-28T12:31:14;3.05;;;1.30;;
32297;SDS011;18782;48.984;8.548;2023-12-28T12:33:43;2.05;;;1.10;;
32297;SDS011;18782;48.984;8.548;2023-12-28T12:36:15;3.28;;;1.20;;
32297;SDS011;18782;48.984;8.548;2023-12-28T12:38:43;2.40;;;1.38;;
32297;SDS011;18782;48.984;8.548;2023-12-28T12:41:11;3.35;;;1.50;;
32297;SDS011;18782;48.984;8.548;2023-12-28T12:43:39;3.03;;;1.58;;
32297;SDS011;18782;48.984;8.548;2023-12-28T12:46:08;2.20;;;1.40;;
32297;SDS011;18782;48.984;8.548;2023-12-28T12:48:36;3.35;;;1.83;;
32297;SDS011;18782;48.984;8.548;2023-12-28T12:51:04;3.10;;;1.17;;
32297;SDS011;18782;48.984;8.548;2023-12-28T12:53:34;1.50;;;0.98;;
32297;SDS011;18782;48.984;8.548;2023-12-28T12:56:03;3.30;;;1.73;;
32297;SDS011;18782;48.984;8.548;2023-12-28T12:58:31;2.50;;;1.30;;
32297;SDS011;18782;48.984;8.548;2023-12-28T13:01:03;3.35;;;1.52;;
32297;SDS011;18782;48.984;8.548;2023-12-28T13:03:30;3.28;;;1.40;;
32297;SDS011;18782;48.984;8.548;2023-12-28T13:05:58;2.85;;;1.90;;
32297;SDS011;18782;48.984;8.548;2023-12-28T13:08:26;4.93;;;3.63;;
32297;SDS011;18782;48.984;8.548;2023-12-28T13:10:55;1.33;;;1.05;;
32297;SDS011;18782;48.984;8.548;2023-12-28T13:13:22;1.80;;;1.10;;
32297;SDS011;18782;48.984;8.548;2023-12-28T13:15:50;2.65;;;1.08;;
32297;SDS011;18782;48.984;8.548;2023-12-28T13:18:18;1.50;;;0.90;;
32297;SDS011;18782;48.984;8.548;2023-12-28T13:20:46;1.75;;;0.95;;
32297;SDS011;18782;48.984;8.548;2023-12-28T13:23:13;1.60;;;1.00;;
32297;SDS011;18782;48.984;8.548;2023-12-28T13:25:41;3.08;;;1.42;;
32297;SDS011;18782;48.984;8.548;2023-12-28T13:28:10;2.00;;;0.93;;
32297;SDS011;18782;48.984;8.548;2023-12-28T13:30:38;1.85;;;1.08;;
32297;SDS011;18782;48.984;8.548;2023-12-28T13:33:06;1.67;;;0.70;;
32297;SDS011;18782;48.984;8.548;2023-12-28T13:35:34;3.30;;;1.08;;
32297;SDS011;18782;48.984;8.548;2023-12-28T13:38:02;2.28;;;1.02;;
32297;SDS011;18782;48.984;8.548;2023-12-28T13:40:30;3.40;;;1.02;;
32297;SDS011;18782;48.984;8.548;2023-12-28T13:42:58;1.77;;;1.17;;
32297;SDS011;18782;48.984;8.548;2023-12-28T13:45:28;4.38;;;1.27;;
32297;SDS011;18782;48.984;8.548;2023-12-28T13:47:55;2.97;;;1.48;;
32297;SDS011;18782;48.984;8.548;2023-12-28T13:50:23;3.58;;;1.08;;
32297;SDS011;18782;48.984;8.548;2023-12-28T13:52:51;2.70;;;1.45;;
32297;SDS011;18782;48.984;8.548;2023-12-28T13:55:19;2.35;;;1.15;;
32297;SDS011;18782;48.984;8.548;2023-12-28T13:57:46;2.50;;;1.08;;
32297;SDS011;18782;48.984;8.548;2023-12-28T14:00:15;2.53;;;0.82;;
32297;SDS011;18782;48.984;8.548;2023-12-28T14:02:44;2.00;;;1.20;;
32297;SDS011;18782;48.984;8.548;2023-12-28T14:05:12;1.92;;;0.90;;
32297;SDS011;18782;48.984;8.548;2023-12-28T14:07:40;2.60;;;1.23;;
32297;SDS011;18782;48.984;8.548;2023-12-28T14:10:08;2.30;;;1.30;;
32297;SDS011;18782;48.984;8.548;2023-12-28T14:12:36;6.18;;;3.25;;
32297;SDS011;18782;48.984;8.548;2023-12-28T14:15:04;2.35;;;1.65;;
32297;SDS011;18782;48.984;8.548;2023-12-28T14:17:33;5.18;;;2.30;;
32297;SDS011;18782;48.984;8.548;2023-12-28T14:20:03;4.05;;;1.73;;
32297;SDS011;18782;48.984;8.548;2023-12-28T14:22:33;3.22;;;1.20;;
32297;SDS011;18782;48.984;8.548;2023-12-28T14:25:01;1.70;;;1.20;;
32297;SDS011;18782;48.984;8.548;2023-12-28T14:27:29;2.42;;;1.70;;
32297;SDS011;18782;48.984;8.548;2023-12-28T14:29:58;2.60;;;1.92;;
32297;SDS011;18782;48.984;8.548;2023-12-28T14:32:30;2.45;;;1.30;;
32297;SDS011;18782;48.984;8.548;2023-12-28T14:34:58;3.47;;;1.30;;
32297;SDS011;18782;48.984;8.548;2023-12-28T14:37:27;3.08;;;1.40;;
32297;SDS011;18782;48.984;8.548;2023-12-28T14:39:55;2.30;;;1.20;;
32297;SDS011;18782;48.984;8.548;2023-12-28T14:42:23;2.50;;;1.50;;
32297;SDS011;18782;48.984;8.548;2023-12-28T14:44:50;2.63;;;1.50;;
32297;SDS011;18782;48.984;8.548;2023-12-28T14:47:18;4.55;;;1.63;;
32297;SDS011;18782;48.984;8.548;2023-12-28T14:49:46;2.83;;;1.60;;
32297;SDS011;18782;48.984;8.548;2023-12-28T14:52:13;3.92;;;1.40;;